createdAt,value
2019-02-20T00:03:38.059Z,26.68
2019-02-20T00:07:41.454Z,26.07
2019-02-20T00:11:45.190Z,23.95
2019-02-20T00:15:48.582Z,22.15
2019-02-20T00:19:51.883Z,12.47
2019-02-20T00:23:55.354Z,31.30
2019-02-20T00:27:58.760Z,28.70
2019-02-20T00:32:02.155Z,28.15
2019-02-20T00:36:05.565Z,42.67
2019-02-20T00:40:12.407Z,32.80
2019-02-20T00:44:17.424Z,27.70
2019-02-20T00:48:32.047Z,35.70
2019-02-20T00:52:37.083Z,32.42
2019-02-20T00:56:40.493Z,35.73
2019-02-20T01:00:43.863Z,31.05
2019-02-20T01:04:47.251Z,35.25
2019-02-20T01:08:50.642Z,22.35
2019-02-20T01:12:54.039Z,28.52
2019-02-20T01:16:57.434Z,35.30
2019-02-20T01:21:00.808Z,23.90
2019-02-20T01:25:05.223Z,27.40
2019-02-20T01:29:08.592Z,23.40
2019-02-20T01:33:11.999Z,28.45
2019-02-20T01:37:15.427Z,41.53
2019-02-20T01:41:18.815Z,33.88
2019-02-20T01:45:22.570Z,21.57
2019-02-20T01:49:25.945Z,34.85
2019-02-20T01:53:29.336Z,32.10
2019-02-20T01:57:32.739Z,40.28
2019-02-20T02:01:36.115Z,37.13
2019-02-20T02:05:39.531Z,30.32
2019-02-20T02:09:42.876Z,42.20
2019-02-20T02:13:46.306Z,26.25
2019-02-20T02:17:49.719Z,30.00
2019-02-20T02:21:53.103Z,24.20
2019-02-20T02:25:56.473Z,25.37
2019-02-20T02:29:59.778Z,32.90
2019-02-20T02:34:03.190Z,25.02
2019-02-20T02:38:06.578Z,23.12
2019-02-20T02:42:09.874Z,33.80
2019-02-20T02:46:13.255Z,28.62
2019-02-20T02:50:16.647Z,41.10
2019-02-20T02:54:20.047Z,13.43
2019-02-20T02:58:23.442Z,34.70
2019-02-20T03:02:26.824Z,31.20
2019-02-20T03:06:30.202Z,23.57
2019-02-20T03:10:33.583Z,18.05
2019-02-20T03:14:37.012Z,27.20
2019-02-20T03:18:40.407Z,26.00
2019-02-20T03:22:43.787Z,28.15
2019-02-20T03:26:47.183Z,26.05
2019-02-20T03:30:50.562Z,26.12
2019-02-20T03:34:53.966Z,37.63
2019-02-20T03:38:57.394Z,28.57
2019-02-20T03:43:00.775Z,17.35
2019-02-20T03:47:04.185Z,26.70
2019-02-20T03:51:07.555Z,24.40
2019-02-20T03:55:10.966Z,26.82
2019-02-20T03:59:14.379Z,29.57
2019-02-20T04:03:17.736Z,30.52
2019-02-20T04:07:21.126Z,40.12
2019-02-20T04:11:24.518Z,27.95
2019-02-20T04:15:27.923Z,31.43
2019-02-20T04:19:31.338Z,30.23
2019-02-20T04:23:34.733Z,32.50
2019-02-20T04:27:38.113Z,27.98
2019-02-20T04:31:41.491Z,33.70
2019-02-20T04:35:44.899Z,32.55
2019-02-20T04:39:48.300Z,28.17
2019-02-20T04:43:51.689Z,31.45
2019-02-20T04:47:55.102Z,37.85
2019-02-20T04:51:58.487Z,32.70
2019-02-20T04:56:01.895Z,34.33
2019-02-20T05:00:08.551Z,27.67
2019-02-20T05:04:11.936Z,29.42
2019-02-20T05:08:15.308Z,27.05
2019-02-20T05:12:18.674Z,47.98
2019-02-20T05:16:22.106Z,36.83
2019-02-20T05:20:25.488Z,31.77
2019-02-20T05:24:28.853Z,32.27
2019-02-20T05:28:32.242Z,45.17
2019-02-20T05:32:35.685Z,41.47
2019-02-20T05:36:39.089Z,42.60
2019-02-20T05:40:42.490Z,42.08
2019-02-20T05:44:45.867Z,46.93
2019-02-20T05:48:50.775Z,40.90
2019-02-20T05:52:54.228Z,38.90
2019-02-20T05:56:57.638Z,39.70
2019-02-20T06:01:01.055Z,36.30
2019-02-20T06:05:05.470Z,33.95
2019-02-20T06:09:08.853Z,40.10
2019-02-20T06:13:12.235Z,41.50
2019-02-20T06:17:15.561Z,35.23
2019-02-20T06:21:18.964Z,42.23
2019-02-20T06:25:22.357Z,47.73
2019-02-20T06:29:25.744Z,46.92
2019-02-20T06:33:29.143Z,42.08
2019-02-20T06:37:32.548Z,39.10
2019-02-20T06:41:39.072Z,39.13
2019-02-20T06:45:40.985Z,49.60
2019-02-20T06:49:44.367Z,39.90
2019-02-20T06:53:47.747Z,42.33
2019-02-20T06:57:51.143Z,39.10
2019-02-20T07:01:54.550Z,33.08
2019-02-20T07:06:19.471Z,30.85
2019-02-20T07:10:48.981Z,38.63
2019-02-20T07:15:04.363Z,37.70
2019-02-20T07:19:16.567Z,47.10
2019-02-20T07:23:25.958Z,46.23
2019-02-20T07:28:02.989Z,40.38
2019-02-20T07:32:06.315Z,43.02
2019-02-20T07:36:09.698Z,40.08
2019-02-20T07:40:13.087Z,35.80
2019-02-20T07:44:16.800Z,36.73
2019-02-20T07:48:20.179Z,52.90
2019-02-20T07:52:23.579Z,46.23
2019-02-20T07:56:26.968Z,35.27
2019-02-20T08:00:30.338Z,38.17
2019-02-20T08:04:33.717Z,36.50
2019-02-20T08:08:37.135Z,42.45
2019-02-20T08:12:40.542Z,38.20
2019-02-20T08:16:51.939Z,32.70
2019-02-20T08:20:48.952Z,35.33
2019-02-20T08:24:52.331Z,39.13
2019-02-20T08:28:55.722Z,41.35
2019-02-20T08:32:59.144Z,36.88
2019-02-20T08:37:02.514Z,36.95
2019-02-20T08:41:05.820Z,30.02
2019-02-20T08:45:10.530Z,37.63
2019-02-20T08:49:13.850Z,43.35
2019-02-20T08:53:17.188Z,37.63
2019-02-20T08:57:20.574Z,18.63
2019-02-20T09:01:23.973Z,35.10
2019-02-20T09:05:27.367Z,39.33
2019-02-20T09:09:30.762Z,32.05
2019-02-20T09:13:34.149Z,35.80
2019-02-20T09:17:37.466Z,30.80
2019-02-20T09:22:01.887Z,30.65
2019-02-20T09:26:05.294Z,28.57
2019-02-20T09:30:13.789Z,41.75
2019-02-20T09:34:17.142Z,53.23
2019-02-20T09:38:20.451Z,22.15
2019-02-20T09:42:23.851Z,26.87
2019-02-20T09:46:27.257Z,16.15
2019-02-20T09:50:30.604Z,40.92
2019-02-20T09:54:33.998Z,27.52
2019-02-20T09:58:37.374Z,31.68
2019-02-20T10:02:40.753Z,14.40
2019-02-20T10:06:44.738Z,29.00
2019-02-20T10:10:48.223Z,29.72
2019-02-20T10:14:51.622Z,25.30
2019-02-20T10:18:55.003Z,19.17
2019-02-20T10:22:58.383Z,37.75
2019-02-20T10:27:01.771Z,37.65
2019-02-20T10:31:05.175Z,34.37
2019-02-20T10:35:09.418Z,33.98
2019-02-20T10:39:12.798Z,31.23
2019-02-20T10:43:16.183Z,27.00
2019-02-20T10:47:19.559Z,23.25
2019-02-20T10:51:22.958Z,33.00
2019-02-20T10:55:26.339Z,16.87
2019-02-20T10:59:29.726Z,28.42
2019-02-20T11:03:33.110Z,18.20
2019-02-20T11:07:36.495Z,34.50
2019-02-20T11:11:39.891Z,24.37
2019-02-20T11:15:43.291Z,27.87
2019-02-20T11:19:46.663Z,26.52
2019-02-20T11:23:50.031Z,28.95
2019-02-20T11:27:53.406Z,16.87
2019-02-20T11:31:56.798Z,23.22
2019-02-20T11:36:00.208Z,25.97
2019-02-20T11:40:04.048Z,28.12
2019-02-20T11:44:07.415Z,29.42
2019-02-20T11:48:10.791Z,21.25
2019-02-20T11:52:14.195Z,26.50
2019-02-20T11:56:26.225Z,26.52
2019-02-20T12:00:22.925Z,33.20
2019-02-20T12:04:26.310Z,29.33
2019-02-20T12:08:29.703Z,29.90
2019-02-20T12:12:33.131Z,49.57
2019-02-20T12:16:36.531Z,22.35
2019-02-20T12:20:39.914Z,24.07
2019-02-20T12:24:43.323Z,43.37
2019-02-20T12:28:47.247Z,39.50
2019-02-20T12:32:50.723Z,35.30
2019-02-20T12:36:54.126Z,31.48
2019-02-20T12:40:57.500Z,40.38
2019-02-20T12:45:00.883Z,41.68
2019-02-20T12:49:05.279Z,20.02
2019-02-20T12:53:08.679Z,28.15
2019-02-20T12:57:11.998Z,25.30
2019-02-20T13:01:15.371Z,41.50
2019-02-20T13:05:18.751Z,41.75
2019-02-20T13:09:22.327Z,32.42
2019-02-20T13:13:25.742Z,28.95
2019-02-20T13:17:29.141Z,30.40
2019-02-20T13:21:32.519Z,13.50
2019-02-20T13:25:35.899Z,22.98
2019-02-20T13:29:39.284Z,28.10
2019-02-20T13:33:42.818Z,39.90
2019-02-20T13:37:46.215Z,29.42
2019-02-20T13:41:49.590Z,30.08
2019-02-20T13:45:52.969Z,22.67
2019-02-20T13:49:56.345Z,31.73
2019-02-20T13:53:59.757Z,20.43
2019-02-20T13:58:03.157Z,24.47
2019-02-20T14:02:06.552Z,26.52
2019-02-20T14:06:09.935Z,28.73
2019-02-20T14:10:13.329Z,28.70
2019-02-20T14:14:16.792Z,23.35
2019-02-20T14:18:20.127Z,28.55
2019-02-20T14:22:23.591Z,25.62
2019-02-20T14:26:26.954Z,22.77
2019-02-20T14:30:30.331Z,19.70
2019-02-20T14:34:33.728Z,14.83
2019-02-20T14:38:37.123Z,18.25
2019-02-20T14:42:40.906Z,24.75
2019-02-20T14:46:44.308Z,23.38
2019-02-20T14:50:48.014Z,18.92
2019-02-20T14:54:51.408Z,16.82
2019-02-20T14:58:54.813Z,13.65
2019-02-20T15:02:58.191Z,20.82
2019-02-20T15:07:01.555Z,17.25
2019-02-20T15:11:04.931Z,17.32
2019-02-20T15:15:11.079Z,18.52
2019-02-20T15:19:14.533Z,13.05
2019-02-20T15:23:17.903Z,14.73
2019-02-20T15:27:28.536Z,14.95
2019-02-20T15:31:33.398Z,16.30
2019-02-20T15:35:31.338Z,13.87
2019-02-20T15:39:34.784Z,18.27
2019-02-20T15:43:38.238Z,12.68
2019-02-20T15:47:41.601Z,18.73
2019-02-20T15:51:44.982Z,13.75
2019-02-20T15:55:48.374Z,10.03
2019-02-20T15:59:52.195Z,14.73
2019-02-20T16:03:55.579Z,15.60
2019-02-20T16:07:59.253Z,16.30
2019-02-20T16:12:02.623Z,15.88
2019-02-20T16:16:06.224Z,16.82
2019-02-20T16:20:11.856Z,16.97
2019-02-20T16:24:15.323Z,20.02
2019-02-20T16:28:18.726Z,15.07
2019-02-20T16:32:22.112Z,20.12
2019-02-20T16:36:25.494Z,9.50
2019-02-20T16:40:28.889Z,17.80
2019-02-20T16:44:32.249Z,15.73
2019-02-20T16:48:35.618Z,15.67
2019-02-20T16:52:39.091Z,15.80
2019-02-20T16:56:43.032Z,13.28
2019-02-20T17:00:46.427Z,22.22
2019-02-20T17:04:49.795Z,23.15
2019-02-20T17:08:53.179Z,18.95
2019-02-20T17:12:56.564Z,13.80
2019-02-20T17:16:59.968Z,15.25
2019-02-20T17:21:03.350Z,11.55
2019-02-20T17:25:08.966Z,10.80
2019-02-20T17:29:12.338Z,14.10
2019-02-20T17:33:16.044Z,12.03
2019-02-20T17:37:19.439Z,14.13
2019-02-20T17:41:23.380Z,18.07
2019-02-20T17:45:26.790Z,12.70
2019-02-20T17:49:30.163Z,16.45
2019-02-20T17:53:33.535Z,15.05
2019-02-20T17:57:36.931Z,12.45
2019-02-20T18:01:40.327Z,15.60
2019-02-20T18:05:43.702Z,17.07
2019-02-20T18:09:47.089Z,14.28
2019-02-20T18:13:50.577Z,11.88
2019-02-20T18:17:53.991Z,15.60
2019-02-20T18:21:57.398Z,13.72
2019-02-20T18:26:00.842Z,18.30
2019-02-20T18:30:06.402Z,16.27
2019-02-20T18:34:09.796Z,9.90
2019-02-20T18:38:13.110Z,25.83
2019-02-20T18:42:16.517Z,18.10
2019-02-20T18:46:19.894Z,15.80
2019-02-20T18:50:23.271Z,17.27
2019-02-20T18:54:26.656Z,16.30
2019-02-20T18:58:33.996Z,19.00
2019-02-20T19:02:35.095Z,17.17
2019-02-20T19:06:38.468Z,16.65
2019-02-20T19:10:42.202Z,15.20
2019-02-20T19:15:00.775Z,14.73
2019-02-20T19:19:19.324Z,20.37
2019-02-20T19:23:59.554Z,13.90
2019-02-20T19:28:17.563Z,17.80
2019-02-20T19:33:03.900Z,17.77
2019-02-20T19:37:09.785Z,18.73
2019-02-20T19:41:22.261Z,19.27
2019-02-20T19:45:28.920Z,18.98
2019-02-20T19:50:01.255Z,34.43
2019-02-20T19:54:10.882Z,18.30
2019-02-20T19:58:17.497Z,14.85
2019-02-20T20:02:46.880Z,13.50
2019-02-20T20:07:11.595Z,24.63
2019-02-20T20:11:33.210Z,18.75
2019-02-20T20:15:45.643Z,18.35
2019-02-20T20:20:08.849Z,17.05
2019-02-20T20:24:39.664Z,21.57
2019-02-20T20:29:16.884Z,19.30
2019-02-20T20:33:32.203Z,18.32
2019-02-20T20:37:41.583Z,20.37
2019-02-20T20:42:10.519Z,19.87
2019-02-20T20:46:22.298Z,25.10
2019-02-20T20:50:31.734Z,26.00
2019-02-20T20:54:54.904Z,22.42
2019-02-20T20:59:01.559Z,17.30
2019-02-20T21:03:08.450Z,24.30
2019-02-20T21:07:40.312Z,23.83
2019-02-20T21:11:55.767Z,23.42
2019-02-20T21:16:17.318Z,22.07
2019-02-20T21:20:47.823Z,29.42
2019-02-20T21:25:20.036Z,28.87
2019-02-20T21:29:47.318Z,25.80
2019-02-20T21:34:11.046Z,21.85
2019-02-20T21:38:39.016Z,20.50
2019-02-20T21:42:51.425Z,25.25
2019-02-20T21:47:03.960Z,26.85
2019-02-20T21:51:22.336Z,25.80
2019-02-20T21:55:34.746Z,24.70
2019-02-20T22:00:09.575Z,34.75
2019-02-20T22:04:33.579Z,22.37
2019-02-20T22:08:55.408Z,29.90
2019-02-20T22:13:26.234Z,31.37
2019-02-20T22:17:41.771Z,31.30
2019-02-20T22:22:07.987Z,29.73
2019-02-20T22:26:19.824Z,37.17
2019-02-20T22:30:44.487Z,31.45
2019-02-20T22:34:53.927Z,31.45
2019-02-20T22:39:15.715Z,34.53
2019-02-20T22:43:40.156Z,37.13
2019-02-20T22:48:20.226Z,29.30
2019-02-20T22:52:26.819Z,35.40
2019-02-20T22:56:42.090Z,30.17
2019-02-20T23:01:06.346Z,34.80
2019-02-20T23:05:43.447Z,33.30
2019-02-20T23:09:52.555Z,34.27
2019-02-20T23:14:02.580Z,32.70
2019-02-20T23:18:06.047Z,29.63
2019-02-20T23:22:09.459Z,32.05
2019-02-20T23:26:13.031Z,32.53
2019-02-20T23:30:16.419Z,30.05
2019-02-20T23:34:19.790Z,27.10
2019-02-20T23:38:23.196Z,28.60
2019-02-20T23:42:26.585Z,38.60
2019-02-20T23:46:29.950Z,28.12
2019-02-20T23:50:33.250Z,32.33
2019-02-20T23:54:36.635Z,31.90
2019-02-20T23:58:40.039Z,35.48
